createdAt,value
2019-01-06T00:00:15.376Z,3.00
2019-01-06T00:03:10.056Z,3.00
2019-01-06T00:05:58.308Z,3.00
2019-01-06T00:08:40.688Z,3.00
2019-01-06T00:11:32.960Z,3.00
2019-01-06T00:14:20.218Z,3.00
2019-01-06T00:17:15.232Z,3.00
2019-01-06T00:20:04.431Z,3.00
2019-01-06T00:22:52.191Z,2.90
2019-01-06T00:25:34.952Z,2.90
2019-01-06T00:28:23.053Z,3.00
2019-01-06T00:31:11.251Z,3.00
2019-01-06T00:33:59.248Z,3.00
2019-01-06T00:36:47.337Z,3.00
2019-01-06T00:39:35.451Z,3.00
2019-01-06T00:42:26.026Z,2.90
2019-01-06T00:45:11.722Z,3.00
2019-01-06T00:47:59.950Z,3.00
2019-01-06T00:50:55.254Z,3.00
2019-01-06T00:53:47.376Z,3.00
2019-01-06T00:56:45.019Z,3.00
2019-01-06T00:59:52.375Z,3.00
2019-01-06T01:02:59.571Z,3.00
2019-01-06T01:05:49.169Z,3.00
2019-01-06T01:08:45.439Z,3.00
2019-01-06T01:11:28.527Z,3.00
2019-01-06T01:14:16.554Z,3.00
2019-01-06T01:17:04.468Z,3.00
2019-01-06T01:19:42.819Z,3.00
2019-01-06T01:22:48.059Z,3.00
2019-01-06T01:25:55.532Z,3.10
2019-01-06T01:28:47.340Z,3.10
2019-01-06T01:31:45.306Z,3.10
2019-01-06T01:34:25.020Z,3.10
2019-01-06T01:37:12.970Z,3.10
2019-01-06T01:40:12.705Z,3.10
2019-01-06T01:43:01.028Z,3.10
2019-01-06T01:46:01.946Z,3.10
2019-01-06T01:49:05.380Z,3.10
2019-01-06T01:52:00.212Z,3.10
2019-01-06T01:54:48.431Z,3.10
2019-01-06T01:57:37.556Z,3.10
2019-01-06T02:00:22.615Z,3.00
2019-01-06T02:03:10.380Z,3.00
2019-01-06T02:06:08.591Z,3.10
2019-01-06T02:08:57.682Z,3.10
2019-01-06T02:11:52.775Z,3.10
2019-01-06T02:14:44.735Z,3.10
2019-01-06T02:17:32.552Z,3.10
2019-01-06T02:20:27.828Z,3.10
2019-01-06T02:23:35.329Z,3.10
2019-01-06T02:26:38.030Z,3.10
2019-01-06T02:29:35.892Z,3.10
2019-01-06T02:32:29.066Z,3.20
2019-01-06T02:35:18.113Z,3.10
2019-01-06T02:38:05.902Z,3.10
2019-01-06T02:41:10.248Z,3.10
2019-01-06T02:44:01.478Z,3.10
2019-01-06T02:46:49.363Z,3.10
2019-01-06T02:49:41.633Z,3.10
2019-01-06T02:52:37.529Z,3.10
2019-01-06T02:55:38.750Z,3.10
2019-01-06T02:58:26.570Z,3.00
2019-01-06T03:01:33.958Z,3.00
2019-01-06T03:04:21.554Z,3.00
2019-01-06T03:07:28.951Z,3.00
2019-01-06T03:10:17.001Z,3.00
2019-01-06T03:13:00.116Z,3.00
2019-01-06T03:15:48.352Z,2.90
2019-01-06T03:18:46.558Z,2.90
2019-01-06T03:21:34.124Z,2.90
2019-01-06T03:24:22.149Z,2.90
2019-01-06T03:27:00.664Z,2.90
2019-01-06T03:29:49.739Z,2.90
2019-01-06T03:32:37.587Z,2.80
2019-01-06T03:35:29.167Z,2.80
2019-01-06T03:38:18.176Z,2.80
2019-01-06T03:41:13.121Z,2.80
2019-01-06T03:44:00.756Z,2.80
2019-01-06T03:46:48.757Z,2.80
2019-01-06T03:49:37.861Z,2.80
2019-01-06T03:52:25.892Z,2.70
2019-01-06T03:55:13.967Z,2.70
2019-01-06T03:58:07.808Z,2.70
2019-01-06T04:00:49.926Z,2.70
2019-01-06T04:03:38.042Z,2.70
2019-01-06T04:06:27.293Z,2.60
2019-01-06T04:09:10.053Z,2.70
2019-01-06T04:12:02.014Z,2.70
2019-01-06T04:14:51.138Z,2.70
2019-01-06T04:17:39.538Z,2.70
2019-01-06T04:20:27.339Z,2.70
2019-01-06T04:23:15.271Z,2.70
2019-01-06T04:26:03.305Z,2.70
2019-01-06T04:29:02.885Z,2.70
2019-01-06T04:31:58.216Z,2.70
2019-01-06T04:34:41.222Z,2.70
2019-01-06T04:37:29.007Z,2.70
2019-01-06T04:40:27.321Z,2.70
2019-01-06T04:43:16.500Z,2.70
2019-01-06T04:46:04.388Z,2.70
2019-01-06T04:48:50.382Z,2.80
2019-01-06T04:51:38.021Z,2.70
2019-01-06T04:54:31.939Z,2.70
2019-01-06T04:57:29.800Z,2.70
2019-01-06T05:00:24.787Z,2.70
2019-01-06T05:03:12.631Z,2.70
2019-01-06T05:06:01.647Z,2.70
2019-01-06T05:08:50.659Z,2.70
2019-01-06T05:11:57.775Z,2.70
2019-01-06T05:14:54.681Z,2.70
2019-01-06T05:17:55.834Z,2.70
2019-01-06T05:21:02.990Z,2.80
2019-01-06T05:24:07.146Z,2.80
2019-01-06T05:26:51.109Z,2.80
2019-01-06T05:29:38.716Z,2.80
2019-01-06T05:32:36.890Z,2.80
2019-01-06T05:35:38.259Z,2.80
2019-01-06T05:38:22.594Z,2.80
2019-01-06T05:41:18.103Z,2.80
2019-01-06T05:44:01.016Z,2.80
2019-01-06T05:46:52.771Z,2.80
2019-01-06T05:49:41.762Z,2.80
2019-01-06T05:52:28.643Z,2.90
2019-01-06T05:55:08.587Z,2.90
2019-01-06T05:57:47.199Z,2.90
2019-01-06T06:00:39.355Z,2.90
2019-01-06T06:03:31.217Z,2.90
2019-01-06T06:06:29.308Z,2.80
2019-01-06T06:09:17.129Z,2.90
2019-01-06T06:12:06.122Z,2.90
2019-01-06T06:14:53.736Z,2.90
2019-01-06T06:17:41.704Z,2.80
2019-01-06T06:20:30.982Z,2.90
2019-01-06T06:23:29.029Z,2.80
2019-01-06T06:26:15.138Z,2.90
2019-01-06T06:29:10.045Z,2.90
2019-01-06T06:31:57.735Z,2.80
2019-01-06T06:34:46.091Z,2.90
2019-01-06T06:37:29.820Z,2.90
2019-01-06T06:40:08.887Z,2.80
2019-01-06T06:43:00.985Z,2.80
2019-01-06T06:45:49.031Z,2.90
2019-01-06T06:48:33.996Z,2.90
2019-01-06T06:51:25.807Z,2.80
2019-01-06T06:54:30.697Z,2.90
2019-01-06T06:58:13.197Z,2.90
2019-01-06T07:01:27.480Z,2.90
2019-01-06T07:04:15.182Z,2.90
2019-01-06T07:07:10.383Z,2.90
2019-01-06T07:09:58.068Z,2.90
2019-01-06T07:12:53.125Z,2.90
2019-01-06T07:15:41.009Z,2.90
2019-01-06T07:18:38.228Z,2.90
2019-01-06T07:21:30.300Z,2.90
2019-01-06T07:24:22.308Z,2.90
2019-01-06T07:27:20.664Z,3.00
2019-01-06T07:30:18.718Z,3.00
2019-01-06T07:32:58.555Z,3.10
2019-01-06T07:35:47.644Z,3.10
2019-01-06T07:38:40.916Z,3.10
2019-01-06T07:41:27.421Z,3.20
2019-01-06T07:44:19.684Z,3.20
2019-01-06T07:47:12.336Z,3.20
2019-01-06T07:50:00.514Z,3.30
2019-01-06T07:52:58.851Z,3.30
2019-01-06T07:55:50.994Z,3.30
2019-01-06T07:58:38.841Z,3.30
2019-01-06T08:01:27.874Z,3.30
2019-01-06T08:04:15.880Z,3.40
2019-01-06T08:07:04.262Z,3.40
2019-01-06T08:09:52.139Z,3.40
2019-01-06T08:12:40.420Z,3.50
2019-01-06T08:15:28.625Z,3.40
2019-01-06T08:18:20.956Z,3.30
2019-01-06T08:21:16.435Z,3.40
2019-01-06T08:24:03.026Z,3.50
2019-01-06T08:26:52.435Z,3.50
2019-01-06T08:29:56.832Z,3.50
2019-01-06T08:32:50.879Z,3.60
2019-01-06T08:35:43.019Z,3.50
2019-01-06T08:38:47.184Z,3.60
2019-01-06T08:41:34.917Z,3.60
2019-01-06T08:44:29.878Z,3.60
2019-01-06T08:47:18.195Z,3.60
2019-01-06T08:50:07.552Z,3.70
2019-01-06T08:52:49.409Z,3.70
2019-01-06T08:55:33.348Z,3.70
2019-01-06T08:58:16.726Z,3.70
2019-01-06T09:01:04.432Z,3.70
2019-01-06T09:03:59.803Z,3.80
2019-01-06T09:06:56.833Z,3.80
2019-01-06T09:09:45.724Z,3.90
2019-01-06T09:12:43.258Z,3.90
2019-01-06T09:15:32.570Z,3.90
2019-01-06T09:18:20.817Z,3.90
2019-01-06T09:21:10.419Z,3.90
2019-01-06T09:23:58.725Z,3.90
2019-01-06T09:26:48.637Z,3.90
2019-01-06T09:29:43.260Z,3.90
2019-01-06T09:32:31.850Z,3.80
2019-01-06T09:35:21.501Z,3.80
2019-01-06T09:38:14.275Z,3.80
2019-01-06T09:41:05.266Z,3.80
2019-01-06T09:43:53.358Z,3.80
2019-01-06T09:46:44.591Z,3.80
2019-01-06T09:49:32.595Z,3.80
2019-01-06T09:52:22.170Z,3.90
2019-01-06T09:55:10.070Z,3.80
2019-01-06T09:58:17.865Z,3.90
2019-01-06T10:01:28.403Z,3.90
2019-01-06T10:04:35.065Z,3.90
2019-01-06T10:07:19.794Z,4.00
2019-01-06T10:10:07.862Z,3.90
2019-01-06T10:12:57.677Z,3.90
2019-01-06T10:15:45.466Z,3.90
2019-01-06T10:18:38.651Z,3.90
2019-01-06T10:21:27.895Z,4.00
2019-01-06T10:24:16.134Z,3.90
2019-01-06T10:27:11.482Z,4.00
2019-01-06T10:29:59.738Z,3.90
2019-01-06T10:32:48.038Z,4.00
2019-01-06T10:35:47.404Z,4.00
2019-01-06T10:38:35.461Z,4.10
2019-01-06T10:41:28.497Z,4.00
2019-01-06T10:44:16.285Z,4.10
2019-01-06T10:47:11.494Z,4.10
2019-01-06T10:50:02.665Z,4.20
2019-01-06T10:53:04.248Z,4.20
2019-01-06T10:55:56.524Z,4.10
2019-01-06T10:58:58.055Z,4.20
2019-01-06T11:01:46.111Z,4.20
2019-01-06T11:04:35.608Z,4.20
2019-01-06T11:07:23.970Z,4.20
2019-01-06T11:10:13.796Z,4.20
2019-01-06T11:13:21.329Z,4.20
2019-01-06T11:16:09.313Z,4.20
2019-01-06T11:19:07.928Z,4.20
2019-01-06T11:22:00.190Z,4.20
2019-01-06T11:24:48.133Z,4.20
2019-01-06T11:27:36.491Z,4.30
2019-01-06T11:30:25.306Z,4.20
2019-01-06T11:33:13.514Z,4.20
2019-01-06T11:36:05.926Z,4.30
2019-01-06T11:39:10.337Z,4.20
2019-01-06T11:42:03.094Z,4.20
2019-01-06T11:44:55.267Z,4.30
2019-01-06T11:47:44.767Z,4.30
2019-01-06T11:50:32.079Z,4.30
2019-01-06T11:53:17.051Z,4.30
2019-01-06T11:55:56.684Z,4.30
2019-01-06T11:58:48.758Z,4.30
2019-01-06T12:01:40.813Z,4.30
2019-01-06T12:04:45.293Z,4.20
2019-01-06T12:07:42.256Z,4.20
2019-01-06T12:10:46.973Z,4.20
2019-01-06T12:13:32.422Z,4.20
2019-01-06T12:16:30.838Z,4.20
2019-01-06T12:19:22.102Z,4.10
2019-01-06T12:22:17.406Z,4.10
2019-01-06T12:25:20.274Z,4.10
2019-01-06T12:28:13.903Z,4.10
2019-01-06T12:31:15.969Z,4.10
2019-01-06T12:34:04.622Z,4.10
2019-01-06T12:36:56.858Z,4.10
2019-01-06T12:39:49.020Z,4.20
2019-01-06T12:42:44.433Z,4.20
2019-01-06T12:45:27.340Z,4.20
2019-01-06T12:48:28.981Z,4.20
2019-01-06T12:51:16.834Z,4.20
2019-01-06T12:54:09.328Z,4.20
2019-01-06T12:56:59.810Z,4.20
2019-01-06T13:00:04.028Z,4.20
2019-01-06T13:02:51.806Z,4.20
2019-01-06T13:05:36.907Z,4.20
2019-01-06T13:08:29.191Z,4.20
2019-01-06T13:11:34.307Z,4.20
2019-01-06T13:14:22.415Z,4.20
2019-01-06T13:17:11.135Z,4.20
2019-01-06T13:19:59.123Z,4.20
2019-01-06T13:22:47.151Z,4.10
2019-01-06T13:25:40.133Z,4.10
2019-01-06T13:28:25.918Z,4.00
2019-01-06T13:31:28.107Z,4.00
2019-01-06T13:34:16.607Z,3.90
2019-01-06T13:37:09.272Z,3.90
2019-01-06T13:40:04.505Z,3.90
2019-01-06T13:43:03.766Z,4.00
2019-01-06T13:46:02.226Z,3.90
2019-01-06T13:49:09.623Z,3.90
2019-01-06T13:52:07.844Z,3.80
2019-01-06T13:54:55.866Z,3.90
2019-01-06T13:57:44.042Z,3.80
2019-01-06T14:00:45.731Z,3.90
2019-01-06T14:03:40.959Z,3.90
2019-01-06T14:06:36.066Z,3.90
2019-01-06T14:09:26.735Z,3.90
2019-01-06T14:12:19.908Z,3.90
2019-01-06T14:15:08.494Z,3.90
2019-01-06T14:18:07.022Z,3.90
2019-01-06T14:20:56.220Z,3.90
2019-01-06T14:23:45.547Z,3.90
2019-01-06T14:26:46.787Z,3.90
2019-01-06T14:29:48.559Z,3.80
2019-01-06T14:32:44.403Z,3.80
2019-01-06T14:35:32.436Z,3.80
2019-01-06T14:38:21.698Z,3.80
2019-01-06T14:41:06.353Z,3.80
2019-01-06T14:44:04.878Z,3.70
2019-01-06T14:46:52.624Z,3.70
2019-01-06T14:49:44.069Z,3.70
2019-01-06T14:52:33.258Z,3.70
2019-01-06T14:55:23.045Z,3.70
2019-01-06T14:58:11.217Z,3.80
2019-01-06T15:01:07.148Z,3.80
2019-01-06T15:03:59.138Z,3.80
2019-01-06T15:06:47.272Z,3.70
2019-01-06T15:09:39.313Z,3.70
2019-01-06T15:12:37.798Z,3.70
2019-01-06T15:15:27.185Z,3.60
2019-01-06T15:18:28.831Z,3.60
2019-01-06T15:21:17.177Z,3.60
2019-01-06T15:24:09.067Z,3.60
2019-01-06T15:27:01.083Z,3.60
2019-01-06T15:29:59.174Z,3.60
2019-01-06T15:32:52.162Z,3.60
2019-01-06T15:35:34.396Z,3.60
2019-01-06T15:38:18.820Z,3.50
2019-01-06T15:41:06.653Z,3.50
2019-01-06T15:43:57.588Z,3.50
2019-01-06T15:46:54.441Z,3.50
2019-01-06T15:49:55.431Z,3.50
2019-01-06T15:52:50.668Z,3.50
2019-01-06T15:55:38.707Z,3.40
2019-01-06T15:58:40.213Z,3.40
2019-01-06T16:01:38.432Z,3.40
2019-01-06T16:04:21.731Z,3.40
2019-01-06T16:07:16.690Z,3.30
2019-01-06T16:10:11.899Z,3.30
2019-01-06T16:13:00.719Z,3.30
2019-01-06T16:15:48.687Z,3.30
2019-01-06T16:18:41.106Z,3.40
2019-01-06T16:21:31.179Z,3.50
2019-01-06T16:24:29.665Z,3.60
2019-01-06T16:27:17.798Z,3.60
2019-01-06T16:30:02.750Z,3.60
2019-01-06T16:32:55.087Z,3.50
2019-01-06T16:35:44.153Z,3.40
2019-01-06T16:38:39.526Z,3.40
2019-01-06T16:41:34.618Z,3.60
2019-01-06T16:44:27.714Z,3.70
2019-01-06T16:47:17.013Z,3.70
2019-01-06T16:50:20.578Z,3.70
2019-01-06T16:53:18.797Z,3.70
2019-01-06T16:56:17.273Z,3.60
2019-01-06T16:59:10.005Z,3.60
2019-01-06T17:02:02.066Z,3.60
2019-01-06T17:04:54.993Z,3.60
2019-01-06T17:07:50.230Z,3.60
2019-01-06T17:10:39.509Z,3.60
2019-01-06T17:13:27.548Z,3.80
2019-01-06T17:16:31.964Z,3.70
2019-01-06T17:19:26.964Z,3.80
2019-01-06T17:22:22.479Z,3.80
2019-01-06T17:25:15.230Z,3.80
2019-01-06T17:28:03.315Z,3.90
2019-01-06T17:30:51.732Z,3.90
2019-01-06T17:33:39.655Z,3.80
2019-01-06T17:36:28.783Z,3.90
2019-01-06T17:39:16.607Z,3.90
2019-01-06T17:41:56.101Z,3.80
2019-01-06T17:44:51.125Z,3.90
2019-01-06T17:47:46.847Z,3.90
2019-01-06T17:50:31.764Z,3.90
2019-01-06T17:53:16.804Z,3.90
2019-01-06T17:56:05.069Z,3.90
2019-01-06T17:58:53.336Z,3.90
2019-01-06T18:02:00.925Z,3.90
2019-01-06T18:04:48.493Z,3.90
2019-01-06T18:07:36.262Z,3.80
2019-01-06T18:10:24.714Z,3.80
2019-01-06T18:13:16.982Z,3.80
2019-01-06T18:16:04.927Z,3.80
2019-01-06T18:18:53.408Z,3.70
2019-01-06T18:21:41.410Z,3.80
2019-01-06T18:24:45.825Z,3.80
2019-01-06T18:27:47.327Z,3.70
2019-01-06T18:30:44.301Z,3.70
2019-01-06T18:33:43.109Z,3.70
2019-01-06T18:36:45.682Z,3.70
2019-01-06T18:39:33.598Z,3.70
2019-01-06T18:42:21.843Z,3.70
2019-01-06T18:45:08.852Z,3.70
2019-01-06T18:48:01.133Z,3.70
2019-01-06T18:50:49.100Z,3.80
2019-01-06T18:53:37.135Z,3.70
2019-01-06T18:56:18.780Z,3.70
2019-01-06T18:59:07.936Z,3.70
2019-01-06T19:01:59.287Z,3.70
2019-01-06T19:04:46.571Z,3.70
2019-01-06T19:07:34.931Z,3.80
2019-01-06T19:10:23.485Z,3.70
2019-01-06T19:13:18.339Z,3.70
2019-01-06T19:16:26.160Z,3.80
2019-01-06T19:19:30.771Z,3.70
2019-01-06T19:22:29.441Z,3.70
2019-01-06T19:25:34.338Z,3.70
2019-01-06T19:28:22.246Z,3.70
2019-01-06T19:31:17.605Z,3.70
2019-01-06T19:34:05.728Z,3.70
2019-01-06T19:37:06.936Z,3.80
2019-01-06T19:40:14.299Z,3.70
2019-01-06T19:43:02.293Z,3.70
2019-01-06T19:45:49.975Z,3.70
2019-01-06T19:48:54.414Z,3.70
2019-01-06T19:51:42.977Z,3.70
2019-01-06T19:54:31.065Z,3.70
2019-01-06T19:57:22.459Z,3.70
2019-01-06T20:00:10.499Z,3.70
2019-01-06T20:03:15.405Z,3.70
2019-01-06T20:06:08.173Z,3.70
2019-01-06T20:08:56.428Z,3.70
2019-01-06T20:11:45.748Z,3.70
2019-01-06T20:14:33.655Z,3.80
2019-01-06T20:17:29.660Z,3.70
2019-01-06T20:20:18.905Z,3.70
2019-01-06T20:23:09.431Z,3.70
2019-01-06T20:25:57.533Z,3.70
2019-01-06T20:29:02.102Z,3.70
2019-01-06T20:31:50.066Z,3.60
2019-01-06T20:34:32.449Z,3.70
2019-01-06T20:37:20.758Z,3.70
2019-01-06T20:40:14.227Z,3.70
2019-01-06T20:43:05.014Z,3.60
2019-01-06T20:46:08.815Z,3.70
2019-01-06T20:49:03.909Z,3.60
2019-01-06T20:51:54.734Z,3.70
2019-01-06T20:54:42.768Z,3.70
2019-01-06T20:57:37.913Z,3.60
2019-01-06T21:00:26.258Z,3.70
2019-01-06T21:03:14.896Z,3.60
2019-01-06T21:06:05.307Z,3.60
2019-01-06T21:08:53.167Z,3.60
2019-01-06T21:11:51.794Z,3.60
2019-01-06T21:14:39.831Z,3.60
2019-01-06T21:17:20.965Z,3.60
2019-01-06T21:20:21.912Z,3.50
2019-01-06T21:23:11.342Z,3.60
2019-01-06T21:25:59.527Z,3.60
2019-01-06T21:28:47.990Z,3.60
2019-01-06T21:31:37.290Z,3.60
2019-01-06T21:34:25.171Z,3.50
2019-01-06T21:37:13.291Z,3.60
2019-01-06T21:40:01.581Z,3.60
2019-01-06T21:42:50.861Z,3.60
2019-01-06T21:45:49.025Z,3.60
2019-01-06T21:48:47.913Z,3.60
2019-01-06T21:51:26.864Z,3.60
2019-01-06T21:54:12.828Z,3.60
2019-01-06T21:57:00.853Z,3.60
2019-01-06T21:59:50.063Z,3.60
2019-01-06T22:02:43.703Z,3.50
2019-01-06T22:05:45.344Z,3.60
2019-01-06T22:08:45.421Z,3.60
2019-01-06T22:11:24.401Z,3.60
2019-01-06T22:14:05.023Z,3.60
2019-01-06T22:16:52.164Z,3.60
2019-01-06T22:19:40.403Z,3.60
2019-01-06T22:22:29.531Z,3.60
2019-01-06T22:25:24.908Z,3.60
2019-01-06T22:28:13.456Z,3.60
2019-01-06T22:31:01.689Z,3.60
2019-01-06T22:33:44.952Z,3.60
2019-01-06T22:36:43.608Z,3.60
2019-01-06T22:39:29.456Z,3.60
2019-01-06T22:42:21.962Z,3.60
2019-01-06T22:45:18.048Z,3.60
2019-01-06T22:48:16.123Z,3.70
2019-01-06T22:51:14.298Z,3.70
2019-01-06T22:54:04.892Z,3.70
2019-01-06T22:56:56.075Z,3.70
2019-01-06T22:59:44.441Z,3.70
2019-01-06T23:02:41.881Z,3.70
2019-01-06T23:05:34.569Z,3.70
2019-01-06T23:08:39.615Z,3.70
2019-01-06T23:11:29.577Z,3.60
2019-01-06T23:14:24.917Z,3.60
2019-01-06T23:17:20.624Z,3.70
2019-01-06T23:20:02.258Z,3.60
2019-01-06T23:22:50.276Z,3.60
2019-01-06T23:25:58.612Z,3.70
2019-01-06T23:28:50.612Z,3.60
2019-01-06T23:31:32.056Z,3.70
2019-01-06T23:34:20.535Z,3.70
2019-01-06T23:37:28.543Z,3.70
2019-01-06T23:40:20.752Z,3.70
2019-01-06T23:43:09.239Z,3.70
2019-01-06T23:46:04.372Z,3.70
2019-01-06T23:48:56.774Z,3.70
2019-01-06T23:51:44.956Z,3.70
2019-01-06T23:54:38.718Z,3.60
2019-01-06T23:57:40.570Z,3.70
